North Thompsonville, Connecticut
Current Conditions -  °F | °C
As of 10:51 AM on Monday 26 Jan 2015 (Local Time) from KBDL Reporting Station
Overcast Overcast  
Wind Chill:   Ceiling: 5500
Heat Index: 15°   Visibility: 10mi
Dew Point:   Wind: 13mph
Humidity: 51%   Direction: 360°N
Pressure: 30.1"   Gusts: NA
Location:  41.9843°N, 72.5534°W
Report Text: KBDL 261551Z 36011KT 10SM OVC055 M09/M18 A3010 RMK AO2 SLP196 T10941178
Loading
Personal Weather Stations






























Interactive Weather Map New forecast layout! Learn more

10-Day Weather Forecast

Advertisements
Track Severe Weather on mobile